createdAt,value
2018-09-25T00:04:17.188Z,59.40
2018-09-25T00:14:25.878Z,59.90
2018-09-25T00:24:34.469Z,60.50
2018-09-25T00:34:43.055Z,60.90
2018-09-25T00:44:52.203Z,61.40
2018-09-25T00:55:00.843Z,61.80
2018-09-25T01:05:09.428Z,63.50
2018-09-25T01:15:18.004Z,64.70
2018-09-25T01:25:26.632Z,65.20
2018-09-25T01:35:35.315Z,65.30
2018-09-25T01:45:43.980Z,65.70
2018-09-25T01:55:52.710Z,65.90
2018-09-25T02:06:01.278Z,65.70
2018-09-25T02:16:09.960Z,66.70
2018-09-25T02:26:18.615Z,67.40
2018-09-25T02:36:27.315Z,67.30
2018-09-25T02:46:35.996Z,68.90
2018-09-25T02:56:44.665Z,69.00
2018-09-25T03:06:53.098Z,69.30
2018-09-25T03:17:01.844Z,68.70
2018-09-25T03:27:10.522Z,68.50
2018-09-25T03:37:19.105Z,68.30
2018-09-25T03:47:27.805Z,68.30
2018-09-25T03:57:36.571Z,67.80
2018-09-25T04:07:45.184Z,68.80
2018-09-25T04:17:53.840Z,68.90
2018-09-25T04:28:02.445Z,69.30
2018-09-25T04:38:11.115Z,69.20
2018-09-25T04:48:19.821Z,68.80
2018-09-25T04:58:28.476Z,68.90
2018-09-25T05:08:37.189Z,68.50
2018-09-25T05:18:45.860Z,69.40
2018-09-25T05:28:54.506Z,69.30
2018-09-25T05:39:03.069Z,68.60
2018-09-25T05:49:11.757Z,69.40
2018-09-25T05:59:20.528Z,69.00
2018-09-25T06:09:29.266Z,67.90
2018-09-25T06:19:37.928Z,69.70
2018-09-25T06:29:46.392Z,69.30
2018-09-25T06:39:54.912Z,69.50
2018-09-25T06:50:03.634Z,68.50
2018-09-25T07:00:12.285Z,69.80
2018-09-25T07:10:21.028Z,70.20
2018-09-25T07:20:29.565Z,70.00
2018-09-25T07:30:38.287Z,68.90
2018-09-25T07:40:46.973Z,70.00
2018-09-25T07:50:55.678Z,69.70
2018-09-25T08:01:04.398Z,66.40
2018-09-25T08:11:13.225Z,66.00
2018-09-25T08:21:21.748Z,65.10
2018-09-25T08:31:30.441Z,63.90
2018-09-25T08:41:39.027Z,62.80
2018-09-25T08:51:47.783Z,61.40
2018-09-25T09:01:56.392Z,60.20
2018-09-25T09:12:04.942Z,59.10
2018-09-25T09:22:13.617Z,58.30
2018-09-25T09:32:22.257Z,57.10
2018-09-25T09:42:31.557Z,55.70
2018-09-25T09:52:40.263Z,53.60
2018-09-25T10:02:48.948Z,52.00
2018-09-25T10:12:57.626Z,51.00
2018-09-25T10:23:06.321Z,50.00
2018-09-25T10:33:15.020Z,49.20
2018-09-25T10:43:23.436Z,47.50
2018-09-25T10:53:31.984Z,47.30
2018-09-25T11:03:40.566Z,46.80
2018-09-25T11:13:49.137Z,46.20
2018-09-25T11:23:57.656Z,45.70
2018-09-25T11:34:06.404Z,45.40
2018-09-25T11:44:15.075Z,44.60
2018-09-25T11:54:23.745Z,43.60
2018-09-25T12:04:32.313Z,44.50
2018-09-25T12:14:41.265Z,44.70
2018-09-25T12:24:49.961Z,43.80
2018-09-25T12:34:58.573Z,42.80
2018-09-25T12:45:07.289Z,41.90
2018-09-25T12:55:15.797Z,41.60
2018-09-25T13:05:24.456Z,41.30
2018-09-25T13:15:33.146Z,39.90
2018-09-25T13:25:41.720Z,40.20
2018-09-25T13:35:50.301Z,39.50
2018-09-25T13:45:59.013Z,39.60
2018-09-25T13:56:07.703Z,39.20
2018-09-25T14:06:16.367Z,38.60
2018-09-25T14:16:25.050Z,37.70
2018-09-25T14:26:33.764Z,36.50
2018-09-25T14:36:42.420Z,36.90
2018-09-25T14:46:51.089Z,36.70
2018-09-25T14:56:59.745Z,35.60
2018-09-25T15:07:08.621Z,36.10
2018-09-25T15:17:17.368Z,34.00
2018-09-25T15:27:26.431Z,35.00
2018-09-25T15:37:34.943Z,35.30
2018-09-25T15:47:43.701Z,35.40
2018-09-25T15:57:52.385Z,35.90
2018-09-25T16:08:01.252Z,36.20
2018-09-25T16:18:09.923Z,36.00
2018-09-25T16:28:18.579Z,36.10
2018-09-25T16:38:27.168Z,36.30
2018-09-25T16:48:35.844Z,36.80
2018-09-25T16:58:44.730Z,37.30
2018-09-25T17:08:53.608Z,37.80
2018-09-25T17:19:02.524Z,39.00
2018-09-25T17:29:11.519Z,40.90
2018-09-25T17:39:20.100Z,41.80
2018-09-25T17:49:29.871Z,42.60
2018-09-25T17:59:38.420Z,43.70
2018-09-25T18:09:47.132Z,45.30
2018-09-25T18:19:55.842Z,46.00
2018-09-25T18:30:04.471Z,47.00
2018-09-25T18:40:13.120Z,48.10
2018-09-25T18:50:21.893Z,48.80
2018-09-25T19:00:31.602Z,49.10
2018-09-25T19:10:40.306Z,49.80
2018-09-25T19:20:49.016Z,50.20
2018-09-25T19:30:57.633Z,50.90
2018-09-25T19:41:06.310Z,51.80
2018-09-25T19:51:14.962Z,52.10
2018-09-25T20:01:23.831Z,52.60
2018-09-25T20:11:32.821Z,52.90
2018-09-25T20:21:41.553Z,53.60
2018-09-25T20:31:50.412Z,54.10
2018-09-25T20:41:59.046Z,54.80
2018-09-25T20:52:07.895Z,55.00
2018-09-25T21:02:16.681Z,55.40
2018-09-25T21:12:25.312Z,55.90
2018-09-25T21:22:34.293Z,56.20
2018-09-25T21:32:42.872Z,58.00
2018-09-25T21:42:51.577Z,58.50
2018-09-25T21:53:00.315Z,59.60
2018-09-25T22:03:09.440Z,60.00
2018-09-25T22:13:18.146Z,59.90
2018-09-25T22:23:26.908Z,60.00
2018-09-25T22:33:35.568Z,60.30
2018-09-25T22:43:44.221Z,61.50
2018-09-25T22:53:52.921Z,60.80
2018-09-25T23:04:01.617Z,61.10
2018-09-25T23:14:17.220Z,61.40
2018-09-25T23:24:26.030Z,61.60
2018-09-25T23:34:34.777Z,62.30
2018-09-25T23:45:08.358Z,62.30
2018-09-25T23:55:19.077Z,62.60
